logo
Search for airport 
image banner adimage banner adimage banner ad
image banner ad

YGBE - The Glebe

Located in Mowbray, Australia

ICAO - , IATA -

Data provided by Airmate  

General information

Coordinates: S41°25'36" E147°8'41"
Elevation is feet MSL.
Magnetic variation is 14° East
View others Airports in Tasmania

Operational data

Special qualification required
Current time UTC:
Current local time:
Weather at : YMLT - Launceston ( 14 km )
METAR: YMLT 220800Z AUTO 33009KT 9999 // OVC042 12/09 Q1023 RF00.0/000.0
TAF: TAF AMD YMLT 220526Z 2206/2306 34010KT 9999 BKN030 FM221500 34005KT 9999 FEW030 FM230200 34008KT 9999 SCT030 FM230500 16010KT 9999 -SHRA BKN030 PROB30 2216/2222 0500 FG
View NOTAMs / SUP AIP / TFR affecting this airport [VIEW]
Communications frequencies: [VIEW]

Runways:

Airport contact information

Address: Mowbray Australia

Satellite view of YGBE